createdAt,value
2022-08-21T00:00:27.483Z,21.10
2022-08-21T00:03:06.691Z,22.05
2022-08-21T00:05:41.110Z,22.65
2022-08-21T00:08:11.781Z,20.10
2022-08-21T00:13:19.016Z,19.73
2022-08-21T00:15:50.636Z,21.35
2022-08-21T00:18:21.448Z,22.02
2022-08-21T00:23:21.850Z,19.80
2022-08-21T00:25:52.793Z,20.70
2022-08-21T00:28:25.573Z,20.45
2022-08-21T00:30:55.691Z,20.77
2022-08-21T00:33:25.951Z,19.45
2022-08-21T00:35:56.570Z,21.35
2022-08-21T00:41:13.445Z,20.15
2022-08-21T00:43:54.966Z,19.30
2022-08-21T00:46:28.237Z,19.48
2022-08-21T00:48:59.414Z,20.23
2022-08-21T00:51:38.462Z,19.35
2022-08-21T00:54:15.464Z,21.17
2022-08-21T00:56:49.813Z,19.83
2022-08-21T00:59:25.302Z,22.05
2022-08-21T01:01:55.734Z,20.40
2022-08-21T01:04:28.010Z,20.48
2022-08-21T01:06:58.605Z,20.98
2022-08-21T01:09:28.992Z,22.20
2022-08-21T01:11:59.925Z,20.52
2022-08-21T01:14:33.127Z,19.48
2022-08-21T01:17:05.363Z,19.98
2022-08-21T01:19:35.904Z,19.90
2022-08-21T01:22:09.178Z,20.48
2022-08-21T01:24:39.665Z,19.88
2022-08-21T01:27:10.003Z,21.40
2022-08-21T01:29:46.328Z,20.73
2022-08-21T01:32:21.975Z,21.83
2022-08-21T01:34:55.204Z,21.25
2022-08-21T01:37:28.122Z,21.33
2022-08-21T01:39:58.406Z,21.25
2022-08-21T01:42:28.908Z,23.65
2022-08-21T01:44:59.120Z,21.88
2022-08-21T01:47:29.598Z,23.50
2022-08-21T01:49:59.746Z,21.60
2022-08-21T01:52:33.045Z,21.58
2022-08-21T01:55:03.733Z,25.90
2022-08-21T02:00:04.240Z,26.77
2022-08-21T02:02:42.370Z,27.02
2022-08-21T02:05:15.798Z,28.95
2022-08-21T02:07:51.605Z,28.35
2022-08-21T02:10:27.261Z,32.17
2022-08-21T02:12:58.317Z,31.25
2022-08-21T02:15:28.990Z,33.05
2022-08-21T02:18:02.638Z,30.85
2022-08-21T02:20:38.007Z,31.50
2022-08-21T02:23:13.790Z,37.08
2022-08-21T02:25:46.859Z,39.65
2022-08-21T02:28:18.723Z,40.15
2022-08-21T02:30:51.952Z,39.78
2022-08-21T02:33:22.584Z,39.05
2022-08-21T02:35:54.082Z,41.05
2022-08-21T02:38:31.838Z,42.00
2022-08-21T02:41:02.130Z,44.83
2022-08-21T02:43:32.887Z,41.67
2022-08-21T02:46:03.744Z,51.00
2022-08-21T02:48:36.015Z,49.80
2022-08-21T02:51:11.000Z,48.03
2022-08-21T02:53:45.252Z,48.55
2022-08-21T02:56:20.450Z,40.60
2022-08-21T02:58:54.264Z,46.28
2022-08-21T03:01:24.874Z,45.53
2022-08-21T03:03:55.209Z,42.63
2022-08-21T03:06:26.674Z,44.08
2022-08-21T03:08:59.504Z,39.72
2022-08-21T03:11:29.950Z,40.08
2022-08-21T03:14:00.476Z,43.17
2022-08-21T03:16:34.773Z,42.58
2022-08-21T03:19:05.737Z,39.63
2022-08-21T03:21:35.935Z,46.53
2022-08-21T03:24:10.087Z,41.25
2022-08-21T03:26:41.477Z,47.13
2022-08-21T03:29:11.947Z,43.03
2022-08-21T03:31:42.104Z,41.97
2022-08-21T03:34:13.076Z,42.53
2022-08-21T03:36:43.427Z,46.35
2022-08-21T03:39:16.292Z,40.05
2022-08-21T03:41:46.532Z,42.05
2022-08-21T03:44:16.809Z,38.45
2022-08-21T03:46:46.961Z,37.47
2022-08-21T03:49:17.181Z,38.03
2022-08-21T03:51:47.698Z,38.10
2022-08-21T03:54:32.141Z,33.40
2022-08-21T03:57:02.590Z,35.40
2022-08-21T03:59:32.782Z,37.95
2022-08-21T04:02:05.825Z,35.53
2022-08-21T04:04:37.224Z,33.13
2022-08-21T04:07:08.114Z,31.98
2022-08-21T04:09:40.988Z,36.13
2022-08-21T04:12:12.626Z,33.28
2022-08-21T04:14:42.928Z,30.83
2022-08-21T04:17:13.084Z,30.50
2022-08-21T04:19:43.292Z,31.63
2022-08-21T04:22:13.822Z,31.23
2022-08-21T04:24:47.206Z,33.47
2022-08-21T04:27:17.356Z,35.83
2022-08-21T04:29:47.498Z,30.00
2022-08-21T04:32:17.653Z,32.33
2022-08-21T04:34:47.918Z,33.00
2022-08-21T04:37:18.208Z,33.60
2022-08-21T04:39:53.531Z,31.25
2022-08-21T04:42:23.890Z,29.48
2022-08-21T04:44:54.376Z,33.78
2022-08-21T04:47:25.083Z,35.95
2022-08-21T04:50:15.481Z,34.08
2022-08-21T04:52:59.408Z,34.17
2022-08-21T04:55:32.662Z,33.95
2022-08-21T04:58:04.318Z,35.00
2022-08-21T05:00:34.530Z,33.38
2022-08-21T05:03:07.460Z,32.03
2022-08-21T05:05:38.291Z,34.67
2022-08-21T05:08:11.486Z,38.33
2022-08-21T05:10:45.526Z,33.20
2022-08-21T05:13:16.499Z,32.83
2022-08-21T05:15:46.678Z,31.95
2022-08-21T05:18:17.599Z,39.38
2022-08-21T05:20:48.478Z,33.35
2022-08-21T05:23:19.187Z,32.50
2022-08-21T05:28:21.917Z,28.70
2022-08-21T05:30:52.088Z,27.08
2022-08-21T05:33:22.246Z,26.70
2022-08-21T05:35:56.788Z,27.98
2022-08-21T05:38:28.320Z,26.55
2022-08-21T05:41:01.191Z,26.35
2022-08-21T05:43:31.510Z,28.00
2022-08-21T05:46:01.701Z,24.38
2022-08-21T05:48:31.879Z,23.27
2022-08-21T05:51:09.248Z,24.98
2022-08-21T05:53:39.789Z,21.05
2022-08-21T05:56:13.823Z,24.98
2022-08-21T05:58:44.486Z,24.45
2022-08-21T06:03:46.846Z,23.08
2022-08-21T06:06:17.029Z,22.17
2022-08-21T06:08:47.649Z,23.33
2022-08-21T06:11:20.919Z,20.88
2022-08-21T06:13:51.179Z,21.17
2022-08-21T06:16:22.188Z,24.00
2022-08-21T06:18:53.133Z,19.95
2022-08-21T06:21:25.990Z,20.63
2022-08-21T06:23:56.751Z,20.55
2022-08-21T06:26:30.297Z,24.35
2022-08-21T06:29:00.578Z,33.67
2022-08-21T06:31:32.330Z,19.45
2022-08-21T06:34:02.970Z,19.75
2022-08-21T06:39:02.999Z,17.60
2022-08-21T06:41:49.480Z,17.85
2022-08-21T06:44:21.147Z,17.15
2022-08-21T06:46:51.644Z,15.63
2022-08-21T06:49:21.855Z,19.08
2022-08-21T06:51:52.170Z,18.00
2022-08-21T06:54:22.344Z,22.30
2022-08-21T06:56:55.151Z,17.20
2022-08-21T06:59:25.254Z,25.58
2022-08-21T07:01:55.483Z,21.70
2022-08-21T07:04:25.706Z,17.30
2022-08-21T07:06:56.013Z,20.80
2022-08-21T07:09:26.183Z,20.10
2022-08-21T07:12:01.655Z,18.65
2022-08-21T07:14:32.020Z,21.55
2022-08-21T07:17:02.284Z,20.65
2022-08-21T07:19:32.544Z,21.92
2022-08-21T07:22:05.675Z,18.48
2022-08-21T07:24:35.766Z,19.85
2022-08-21T07:27:10.159Z,19.35
2022-08-21T07:29:40.608Z,21.42
2022-08-21T07:32:11.129Z,23.52
2022-08-21T07:34:41.394Z,18.80
2022-08-21T07:37:11.698Z,18.20
2022-08-21T07:39:41.940Z,19.67
2022-08-21T07:42:14.994Z,18.48
2022-08-21T07:44:45.453Z,16.73
2022-08-21T07:47:15.726Z,16.75
2022-08-21T07:49:59.819Z,18.75
2022-08-21T07:52:31.168Z,15.10
2022-08-21T07:55:06.101Z,16.15
2022-08-21T07:57:39.769Z,15.98
2022-08-21T08:00:14.557Z,15.93
2022-08-21T08:02:44.921Z,17.70
2022-08-21T08:05:15.596Z,14.38
2022-08-21T08:07:46.221Z,16.67
2022-08-21T08:12:49.811Z,15.27
2022-08-21T08:15:24.029Z,24.60
2022-08-21T08:17:55.946Z,15.45
2022-08-21T08:20:27.435Z,14.95
2022-08-21T08:22:58.797Z,14.10
2022-08-21T08:25:36.248Z,13.98
2022-08-21T08:28:16.478Z,14.75
2022-08-21T08:30:50.292Z,12.77
2022-08-21T08:33:21.309Z,14.10
2022-08-21T08:35:54.700Z,12.95
2022-08-21T08:38:26.720Z,12.82
2022-08-21T08:41:14.668Z,15.07
2022-08-21T08:43:55.020Z,15.90
2022-08-21T08:46:34.931Z,14.30
2022-08-21T08:49:12.390Z,17.30
2022-08-21T08:51:53.024Z,14.80
2022-08-21T08:54:32.639Z,14.52
2022-08-21T08:57:04.173Z,13.45
2022-08-21T08:59:45.986Z,15.32
2022-08-21T09:02:18.589Z,11.65
2022-08-21T09:04:52.894Z,14.80
2022-08-21T09:07:40.298Z,11.05
2022-08-21T09:10:19.715Z,11.25
2022-08-21T09:13:01.249Z,10.35
2022-08-21T09:15:44.906Z,12.82
2022-08-21T09:18:35.433Z,8.15
2022-08-21T09:23:58.299Z,19.40
2022-08-21T09:26:31.172Z,11.13
2022-08-21T09:29:04.470Z,12.63
2022-08-21T09:31:40.740Z,10.88
2022-08-21T09:34:14.893Z,12.88
2022-08-21T09:36:48.820Z,8.02
2022-08-21T09:39:29.293Z,9.45
2022-08-21T09:44:34.071Z,8.25
2022-08-21T09:47:07.093Z,7.65
2022-08-21T09:49:40.684Z,9.50
2022-08-21T09:52:23.323Z,7.72
2022-08-21T09:54:58.215Z,7.25
2022-08-21T09:57:46.351Z,9.30
2022-08-21T10:00:24.448Z,6.15
2022-08-21T10:02:57.486Z,6.55
2022-08-21T10:05:30.754Z,7.13
2022-08-21T10:08:01.036Z,7.00
2022-08-21T10:10:39.632Z,6.38
2022-08-21T10:13:17.288Z,7.97
2022-08-21T10:15:55.177Z,5.38
2022-08-21T10:18:33.410Z,6.32
2022-08-21T10:21:12.001Z,6.68
2022-08-21T10:23:58.711Z,10.00
2022-08-21T10:26:45.146Z,8.15
2022-08-21T10:29:29.942Z,5.10
2022-08-21T10:32:25.967Z,5.18
2022-08-21T10:35:12.420Z,7.28
2022-08-21T10:38:02.714Z,7.28
2022-08-21T10:40:40.901Z,8.15
2022-08-21T10:43:27.970Z,5.85
2022-08-21T10:46:11.312Z,7.30
2022-08-21T10:48:50.827Z,5.78
2022-08-21T10:51:35.550Z,8.15
2022-08-21T10:54:14.253Z,6.88
2022-08-21T10:56:45.756Z,7.35
2022-08-21T10:59:38.091Z,4.18
2022-08-21T11:02:19.623Z,8.00
2022-08-21T11:04:58.366Z,5.68
2022-08-21T11:07:37.125Z,6.70
2022-08-21T11:10:17.418Z,5.90
2022-08-21T11:12:57.299Z,4.80
2022-08-21T11:15:43.024Z,5.38
2022-08-21T11:18:26.170Z,5.63
2022-08-21T11:21:08.538Z,3.97
2022-08-21T11:23:50.690Z,7.53
2022-08-21T11:26:32.227Z,7.07
2022-08-21T11:29:12.664Z,6.05
2022-08-21T11:31:59.429Z,7.03
2022-08-21T11:34:47.071Z,5.00
2022-08-21T11:37:28.234Z,7.47
2022-08-21T11:40:10.293Z,4.55
2022-08-21T11:42:51.473Z,6.38
2022-08-21T11:45:45.812Z,6.25
2022-08-21T11:48:33.940Z,7.25
2022-08-21T11:51:08.571Z,6.20
2022-08-21T11:53:54.075Z,5.65
2022-08-21T11:56:34.145Z,7.20
2022-08-21T11:59:10.631Z,7.80
2022-08-21T12:01:47.428Z,8.77
2022-08-21T12:04:32.323Z,5.32
2022-08-21T12:07:16.855Z,8.38
2022-08-21T12:09:58.953Z,6.88
2022-08-21T12:12:35.124Z,4.03
2022-08-21T12:15:20.370Z,7.03
2022-08-21T12:18:04.133Z,13.15
2022-08-21T12:20:50.837Z,6.18
2022-08-21T12:23:30.065Z,4.07
2022-08-21T12:26:22.293Z,8.02
2022-08-21T12:28:55.238Z,5.78
2022-08-21T12:31:32.185Z,6.68
2022-08-21T12:34:05.130Z,5.30
2022-08-21T12:36:47.964Z,5.47
2022-08-21T12:39:23.319Z,5.97
2022-08-21T12:42:01.948Z,4.63
2022-08-21T12:44:42.914Z,5.75
2022-08-21T12:47:21.935Z,6.43
2022-08-21T12:50:02.567Z,5.90
2022-08-21T12:52:39.614Z,6.72
2022-08-21T12:55:16.849Z,5.18
2022-08-21T12:57:47.068Z,4.68
2022-08-21T13:00:26.844Z,8.27
2022-08-21T13:02:59.414Z,6.15
2022-08-21T13:05:37.845Z,4.68
2022-08-21T13:08:10.395Z,7.10
2022-08-21T13:10:43.540Z,6.25
2022-08-21T13:13:25.640Z,4.25
2022-08-21T13:16:08.800Z,7.05
2022-08-21T13:19:00.423Z,5.22
2022-08-21T13:21:36.400Z,4.18
2022-08-21T13:24:42.951Z,5.55
2022-08-21T13:27:24.833Z,3.95
2022-08-21T13:30:09.193Z,4.95
2022-08-21T13:32:47.166Z,5.28
2022-08-21T13:35:21.381Z,6.95
2022-08-21T13:37:53.489Z,7.00
2022-08-21T13:40:32.643Z,6.82
2022-08-21T13:43:04.866Z,6.57
2022-08-21T13:45:37.124Z,6.47
2022-08-21T13:48:10.010Z,5.72
2022-08-21T13:50:42.366Z,5.38
2022-08-21T13:53:27.967Z,5.68
2022-08-21T13:56:00.687Z,5.18
2022-08-21T13:58:34.343Z,6.10
2022-08-21T14:01:06.662Z,6.25
2022-08-21T14:03:45.687Z,5.55
2022-08-21T14:06:17.212Z,6.03
2022-08-21T14:08:55.493Z,5.28
2022-08-21T14:11:26.781Z,4.68
2022-08-21T14:14:04.862Z,4.03
2022-08-21T14:16:48.039Z,5.75
2022-08-21T14:19:28.588Z,4.55
2022-08-21T14:21:59.029Z,7.03
2022-08-21T14:24:35.759Z,6.88
2022-08-21T14:27:10.040Z,6.97
2022-08-21T14:29:44.521Z,4.35
2022-08-21T14:32:21.627Z,8.27
2022-08-21T14:35:01.160Z,8.20
2022-08-21T14:37:31.483Z,4.65
2022-08-21T14:40:02.487Z,6.68
2022-08-21T14:42:33.104Z,4.85
2022-08-21T14:45:09.171Z,4.95
2022-08-21T14:47:39.340Z,5.07
2022-08-21T14:50:13.975Z,10.73
2022-08-21T14:52:46.728Z,6.35
2022-08-21T14:55:19.815Z,5.47
2022-08-21T14:57:54.487Z,5.38
2022-08-21T15:00:36.036Z,4.80
2022-08-21T15:03:06.768Z,10.75
2022-08-21T15:05:40.502Z,17.00
2022-08-21T15:08:10.974Z,37.20
2022-08-21T15:10:57.108Z,7.88
2022-08-21T15:13:32.233Z,6.38
2022-08-21T15:16:02.975Z,6.63
2022-08-21T15:18:34.535Z,5.72
2022-08-21T15:21:07.604Z,5.15
2022-08-21T15:23:39.949Z,6.15
2022-08-21T15:26:14.205Z,5.05
2022-08-21T15:28:44.967Z,5.68
2022-08-21T15:31:15.168Z,5.15
2022-08-21T15:33:45.439Z,6.05
2022-08-21T15:36:18.224Z,6.47
2022-08-21T15:38:49.607Z,7.50
2022-08-21T15:41:19.955Z,4.18
2022-08-21T15:43:55.560Z,6.85
2022-08-21T15:46:25.932Z,6.18
2022-08-21T15:48:59.735Z,5.78
2022-08-21T15:51:32.968Z,8.68
2022-08-21T15:54:03.740Z,8.35
2022-08-21T15:56:40.256Z,4.15
2022-08-21T15:59:16.921Z,6.22
2022-08-21T16:01:47.821Z,4.57
2022-08-21T16:04:27.985Z,7.53
2022-08-21T16:09:37.911Z,8.27
2022-08-21T16:14:39.987Z,6.75
2022-08-21T16:17:10.724Z,8.18
2022-08-21T16:19:41.465Z,6.63
2022-08-21T16:22:14.320Z,4.97
2022-08-21T16:24:44.679Z,6.10
2022-08-21T16:27:15.337Z,5.93
2022-08-21T16:29:48.732Z,7.03
2022-08-21T16:32:20.265Z,4.85
2022-08-21T16:34:52.709Z,4.47
2022-08-21T16:37:27.344Z,6.20
2022-08-21T16:39:57.673Z,7.78
2022-08-21T16:44:59.668Z,4.90
2022-08-21T16:47:29.909Z,5.32
2022-08-21T16:52:32.632Z,5.95
2022-08-21T16:55:02.798Z,5.60
2022-08-21T16:57:33.012Z,7.10
2022-08-21T17:00:04.877Z,5.45
2022-08-21T17:02:39.886Z,5.97
2022-08-21T17:05:13.984Z,4.65
2022-08-21T17:07:47.716Z,5.00
2022-08-21T17:10:19.661Z,6.50
2022-08-21T17:12:56.550Z,4.75
2022-08-21T17:15:31.279Z,6.35
2022-08-21T17:18:02.215Z,6.00
2022-08-21T17:20:33.278Z,8.07
2022-08-21T17:23:06.665Z,9.68
2022-08-21T17:25:37.622Z,4.25
2022-08-21T17:28:07.946Z,9.25
2022-08-21T17:30:42.898Z,4.72
2022-08-21T17:33:13.235Z,5.60
2022-08-21T17:35:46.719Z,7.80
2022-08-21T17:38:19.619Z,5.70
2022-08-21T17:40:51.160Z,61.05
2022-08-21T17:43:21.859Z,16.27
2022-08-21T17:45:52.150Z,9.40
2022-08-21T17:48:25.529Z,8.13
2022-08-21T17:50:55.941Z,12.02
2022-08-21T17:53:28.816Z,7.63
2022-08-21T17:55:59.395Z,6.22
2022-08-21T17:58:29.802Z,6.30
2022-08-21T18:01:00.364Z,5.57
2022-08-21T18:03:30.632Z,5.63
2022-08-21T18:06:07.889Z,8.98
2022-08-21T18:08:40.683Z,5.93
2022-08-21T18:11:23.772Z,7.03
2022-08-21T18:13:55.940Z,9.10
2022-08-21T18:16:26.725Z,6.45
2022-08-21T18:18:57.834Z,7.10
2022-08-21T18:21:28.784Z,6.55
2022-08-21T18:24:01.910Z,7.28
2022-08-21T18:26:35.821Z,6.10
2022-08-21T18:29:12.165Z,5.97
2022-08-21T18:31:46.395Z,6.40
2022-08-21T18:34:28.079Z,6.63
2022-08-21T18:36:59.957Z,5.50
2022-08-21T18:39:36.739Z,5.05
2022-08-21T18:42:13.606Z,6.88
2022-08-21T18:44:47.908Z,6.00
2022-08-21T18:47:26.006Z,10.13
2022-08-21T18:49:56.714Z,5.72
2022-08-21T18:52:28.567Z,4.68
2022-08-21T18:55:05.888Z,5.68
2022-08-21T18:57:40.005Z,24.85
2022-08-21T19:00:15.472Z,13.73
2022-08-21T19:02:46.488Z,6.80
2022-08-21T19:05:20.210Z,7.03
2022-08-21T19:07:55.232Z,5.38
2022-08-21T19:10:29.567Z,5.13
2022-08-21T19:13:04.175Z,10.15
2022-08-21T19:15:39.932Z,11.93
2022-08-21T19:18:21.398Z,10.02
2022-08-21T19:20:59.165Z,10.27
2022-08-21T19:23:31.328Z,7.47
2022-08-21T19:26:11.123Z,4.93
2022-08-21T19:28:49.188Z,7.40
2022-08-21T19:31:23.611Z,6.38
2022-08-21T19:34:01.518Z,6.63
2022-08-21T19:36:49.736Z,9.32
2022-08-21T19:39:21.458Z,6.70
2022-08-21T19:41:58.202Z,4.88
2022-08-21T19:44:32.084Z,3.75
2022-08-21T19:47:09.238Z,4.70
2022-08-21T19:49:46.562Z,5.72
2022-08-21T19:52:18.359Z,6.70
2022-08-21T19:54:49.280Z,8.88
2022-08-21T19:57:22.833Z,7.22
2022-08-21T19:59:53.406Z,8.25
2022-08-21T20:02:25.542Z,5.78
2022-08-21T20:04:56.047Z,6.93
2022-08-21T20:07:27.131Z,5.68
2022-08-21T20:09:57.851Z,5.95
2022-08-21T20:15:02.011Z,7.82
2022-08-21T20:17:32.464Z,6.05
2022-08-21T20:20:02.937Z,9.48
2022-08-21T20:22:33.767Z,5.07
2022-08-21T20:25:04.318Z,6.22
2022-08-21T20:27:41.293Z,5.35
2022-08-21T20:30:14.145Z,7.13
2022-08-21T20:32:44.547Z,4.80
2022-08-21T20:35:15.675Z,5.00
2022-08-21T20:37:45.977Z,5.97
2022-08-21T20:40:33.006Z,5.68
2022-08-21T20:43:07.437Z,6.30
2022-08-21T20:45:43.418Z,6.25
2022-08-21T20:51:00.852Z,4.03
2022-08-21T20:53:43.773Z,6.03
2022-08-21T20:56:28.349Z,6.47
2022-08-21T20:59:13.638Z,6.57
2022-08-21T21:01:46.287Z,5.07
2022-08-21T21:04:37.049Z,9.27
2022-08-21T21:07:12.556Z,5.13
2022-08-21T21:09:49.257Z,4.20
2022-08-21T21:12:28.029Z,5.32
2022-08-21T21:15:10.090Z,5.38
2022-08-21T21:17:49.133Z,5.72
2022-08-21T21:20:29.350Z,4.78
2022-08-21T21:23:16.778Z,6.70
2022-08-21T21:26:01.236Z,4.53
2022-08-21T21:28:44.410Z,4.55
2022-08-21T21:31:18.107Z,5.80
2022-08-21T21:33:50.464Z,5.30
2022-08-21T21:36:32.571Z,7.50
2022-08-21T21:39:13.190Z,7.13
2022-08-21T21:41:54.305Z,6.05
2022-08-21T21:44:43.172Z,4.40
2022-08-21T21:47:27.171Z,5.07
2022-08-21T21:50:23.278Z,6.30
2022-08-21T21:53:15.340Z,5.55
2022-08-21T21:56:08.416Z,5.35
2022-08-21T22:02:01.110Z,4.72
2022-08-21T22:04:51.121Z,8.00
2022-08-21T22:07:32.265Z,4.85
2022-08-21T22:13:13.094Z,5.15
2022-08-21T22:15:55.815Z,4.18
2022-08-21T22:18:30.064Z,5.63
2022-08-21T22:21:13.773Z,6.35
2022-08-21T22:23:49.210Z,10.15
2022-08-21T22:26:25.795Z,4.95
2022-08-21T22:28:57.430Z,4.38
2022-08-21T22:31:31.434Z,4.78
2022-08-21T22:34:17.638Z,9.13
2022-08-21T22:36:59.526Z,7.03
2022-08-21T22:39:38.802Z,6.72
2022-08-21T22:42:14.035Z,3.50
2022-08-21T22:44:53.586Z,5.30
2022-08-21T22:47:30.086Z,8.02
2022-08-21T22:50:04.733Z,9.23
2022-08-21T22:52:40.607Z,4.15
2022-08-21T22:55:26.230Z,8.10
2022-08-21T22:58:14.166Z,6.25
2022-08-21T23:00:57.831Z,5.25
2022-08-21T23:03:34.516Z,7.22
2022-08-21T23:06:12.638Z,6.35
2022-08-21T23:08:46.346Z,5.97
2022-08-21T23:11:24.436Z,5.40
2022-08-21T23:13:57.216Z,4.50
2022-08-21T23:16:47.406Z,7.28
2022-08-21T23:19:38.135Z,6.15
2022-08-21T23:22:38.785Z,5.38
2022-08-21T23:25:46.020Z,5.60
2022-08-21T23:28:29.518Z,5.70
2022-08-21T23:31:13.357Z,4.93
2022-08-21T23:34:05.974Z,6.05
2022-08-21T23:37:06.841Z,6.80
2022-08-21T23:40:11.280Z,5.10
2022-08-21T23:43:04.575Z,6.00
2022-08-21T23:48:46.833Z,4.93
2022-08-21T23:51:26.020Z,5.97
2022-08-21T23:54:08.216Z,4.70
2022-08-21T23:57:00.268Z,6.20
2022-08-21T23:59:46.953Z,5.20
